createdAt,value
2023-10-31T00:01:24.843Z,7.33
2023-10-31T00:03:52.191Z,7.43
2023-10-31T00:06:19.433Z,7.70
2023-10-31T00:08:46.529Z,6.70
2023-10-31T00:11:13.641Z,7.80
2023-10-31T00:13:40.851Z,8.80
2023-10-31T00:16:08.534Z,7.63
2023-10-31T00:18:35.834Z,7.97
2023-10-31T00:21:03.185Z,8.93
2023-10-31T00:23:30.291Z,8.83
2023-10-31T00:25:57.541Z,8.53
2023-10-31T00:28:24.998Z,7.30
2023-10-31T00:30:52.188Z,8.10
2023-10-31T00:33:19.339Z,8.87
2023-10-31T00:35:46.707Z,8.73
2023-10-31T00:38:13.865Z,9.87
2023-10-31T00:40:40.986Z,8.53
2023-10-31T00:43:08.114Z,9.60
2023-10-31T00:45:35.399Z,8.30
2023-10-31T00:48:02.581Z,9.33
2023-10-31T00:50:30.168Z,8.43
2023-10-31T00:52:57.446Z,8.00
2023-10-31T00:55:24.667Z,8.40
2023-10-31T00:57:51.891Z,7.80
2023-10-31T01:00:19.605Z,7.40
2023-10-31T01:02:46.848Z,7.50
2023-10-31T01:05:14.100Z,7.70
2023-10-31T01:07:41.266Z,7.73
2023-10-31T01:10:09.028Z,6.93
2023-10-31T01:12:36.116Z,7.03
2023-10-31T01:15:03.620Z,7.60
2023-10-31T01:17:31.379Z,6.53
2023-10-31T01:19:58.551Z,7.40
2023-10-31T01:22:25.742Z,7.27
2023-10-31T01:24:53.600Z,7.33
2023-10-31T01:27:20.642Z,8.43
2023-10-31T01:29:47.754Z,8.20
2023-10-31T01:32:21.919Z,8.73
2023-10-31T01:34:50.431Z,7.50
2023-10-31T01:37:20.380Z,7.70
2023-10-31T01:39:47.826Z,7.60
2023-10-31T01:42:16.352Z,7.80
2023-10-31T01:44:43.884Z,8.43
2023-10-31T01:47:11.201Z,10.40
2023-10-31T01:49:39.446Z,8.53
2023-10-31T01:52:07.875Z,9.73
2023-10-31T01:54:35.636Z,9.10
2023-10-31T01:57:05.841Z,9.50
2023-10-31T01:59:33.132Z,10.20
2023-10-31T02:02:02.189Z,11.70
2023-10-31T02:04:32.144Z,10.53
2023-10-31T02:06:59.285Z,11.10
2023-10-31T02:09:28.562Z,10.40
2023-10-31T02:11:56.298Z,10.03
2023-10-31T02:14:25.071Z,11.33
2023-10-31T02:16:52.706Z,11.03
2023-10-31T02:19:23.162Z,10.50
2023-10-31T02:21:50.347Z,11.00
2023-10-31T02:24:18.052Z,12.33
2023-10-31T02:26:45.234Z,13.47
2023-10-31T02:29:12.503Z,12.80
2023-10-31T02:31:39.896Z,10.67
2023-10-31T02:34:07.221Z,12.00
2023-10-31T02:36:35.045Z,11.67
2023-10-31T02:39:02.576Z,11.53
2023-10-31T02:41:29.674Z,10.83
2023-10-31T02:43:57.930Z,12.43
2023-10-31T02:46:25.202Z,12.27
2023-10-31T02:48:52.465Z,12.00
2023-10-31T02:51:21.006Z,13.30
2023-10-31T02:53:48.637Z,13.93
2023-10-31T02:56:15.844Z,14.93
2023-10-31T02:58:43.040Z,15.90
2023-10-31T03:01:10.250Z,16.73
2023-10-31T03:03:37.415Z,15.20
2023-10-31T03:06:06.744Z,18.37
2023-10-31T03:08:33.846Z,18.20
2023-10-31T03:11:01.036Z,18.90
2023-10-31T03:13:28.195Z,18.47
2023-10-31T03:15:55.278Z,18.53
2023-10-31T03:18:23.181Z,19.50
2023-10-31T03:20:50.366Z,18.70
2023-10-31T03:23:17.457Z,19.40
2023-10-31T03:25:44.669Z,18.30
2023-10-31T03:28:25.126Z,18.77
2023-10-31T03:30:52.633Z,17.20
2023-10-31T03:33:19.785Z,18.43
2023-10-31T03:35:47.787Z,16.40
2023-10-31T03:38:15.217Z,15.50
2023-10-31T03:40:42.846Z,14.50
2023-10-31T03:43:12.937Z,12.10
2023-10-31T03:45:40.321Z,11.40
2023-10-31T03:48:08.463Z,10.50
2023-10-31T03:50:35.755Z,10.27
2023-10-31T03:53:02.928Z,8.07
2023-10-31T03:55:31.384Z,6.60
2023-10-31T03:57:58.485Z,7.57
2023-10-31T04:00:25.718Z,6.63
2023-10-31T04:02:52.973Z,7.83
2023-10-31T04:05:20.271Z,7.60
2023-10-31T04:07:48.431Z,8.40
2023-10-31T04:10:15.710Z,7.13
2023-10-31T04:12:43.450Z,7.97
2023-10-31T04:15:11.226Z,7.63
2023-10-31T04:17:39.428Z,7.17
2023-10-31T04:20:07.810Z,6.70
2023-10-31T04:22:34.947Z,7.67
2023-10-31T04:25:02.118Z,7.23
2023-10-31T04:27:29.282Z,6.90
2023-10-31T04:29:56.373Z,6.80
2023-10-31T04:32:23.592Z,6.40
2023-10-31T04:34:50.851Z,6.73
2023-10-31T04:37:18.078Z,6.53
2023-10-31T04:39:45.325Z,6.47
2023-10-31T04:42:12.369Z,6.13
2023-10-31T04:44:39.520Z,4.90
2023-10-31T04:47:08.206Z,4.67
2023-10-31T04:49:38.549Z,3.43
2023-10-31T04:52:06.359Z,3.10
2023-10-31T04:54:33.466Z,2.60
2023-10-31T04:57:00.640Z,2.53
2023-10-31T04:59:27.716Z,2.80
2023-10-31T05:01:56.458Z,2.40
2023-10-31T05:04:23.842Z,1.83
2023-10-31T05:06:51.031Z,1.60
2023-10-31T05:09:19.225Z,1.67
2023-10-31T05:11:47.044Z,1.30
2023-10-31T05:14:14.168Z,1.77
2023-10-31T05:16:43.423Z,1.73
2023-10-31T05:19:12.180Z,1.03
2023-10-31T05:21:39.480Z,1.30
2023-10-31T05:24:07.801Z,0.93
2023-10-31T05:26:34.992Z,1.40
2023-10-31T05:29:02.254Z,1.20
2023-10-31T05:31:29.380Z,0.83
2023-10-31T05:33:56.519Z,0.90
2023-10-31T05:36:26.237Z,1.33
2023-10-31T05:38:53.510Z,1.07
2023-10-31T05:41:20.690Z,1.03
2023-10-31T05:43:47.896Z,1.00
2023-10-31T05:46:15.904Z,0.80
2023-10-31T05:48:46.749Z,1.20
2023-10-31T05:51:19.386Z,0.97
2023-10-31T05:53:48.778Z,0.80
2023-10-31T05:56:17.952Z,0.80
2023-10-31T05:58:45.282Z,0.70
2023-10-31T06:01:12.573Z,0.70
2023-10-31T06:03:44.780Z,0.70
2023-10-31T06:06:13.403Z,0.70
2023-10-31T06:08:42.175Z,0.70
2023-10-31T06:11:09.415Z,0.70
2023-10-31T06:13:36.502Z,0.63
2023-10-31T06:16:04.033Z,0.70
2023-10-31T06:18:31.146Z,0.60
2023-10-31T06:20:58.666Z,0.70
2023-10-31T06:23:25.837Z,0.60
2023-10-31T06:25:53.023Z,0.50
2023-10-31T06:28:20.113Z,0.70
2023-10-31T06:30:47.395Z,0.50
2023-10-31T06:33:14.529Z,0.60
2023-10-31T06:35:41.845Z,0.60
2023-10-31T06:38:09.113Z,0.67
2023-10-31T06:40:36.375Z,0.60
2023-10-31T06:43:03.854Z,0.60
2023-10-31T06:45:31.038Z,0.60
2023-10-31T06:47:58.176Z,0.70
2023-10-31T06:50:25.910Z,0.70
2023-10-31T06:52:53.173Z,0.60
2023-10-31T06:55:20.257Z,0.60
2023-10-31T06:57:47.511Z,0.60
2023-10-31T07:00:15.500Z,0.60
2023-10-31T07:02:42.915Z,0.60
2023-10-31T07:05:10.277Z,0.70
2023-10-31T07:07:38.210Z,0.57
2023-10-31T07:10:06.550Z,0.50
2023-10-31T07:12:33.714Z,0.60
2023-10-31T07:15:00.972Z,0.53
2023-10-31T07:17:28.254Z,0.57
2023-10-31T07:19:55.624Z,0.50
2023-10-31T07:22:25.562Z,0.50
2023-10-31T07:24:53.161Z,0.60
2023-10-31T07:27:20.305Z,0.70
2023-10-31T07:29:47.694Z,0.50
2023-10-31T07:32:15.012Z,0.50
2023-10-31T07:34:43.618Z,0.50
2023-10-31T07:37:10.778Z,0.50
2023-10-31T07:39:37.972Z,0.60
2023-10-31T07:42:05.633Z,0.60
2023-10-31T07:44:32.772Z,0.60
2023-10-31T07:46:59.985Z,0.50
2023-10-31T07:49:27.232Z,0.60
2023-10-31T07:51:54.338Z,0.50
2023-10-31T07:54:21.706Z,0.50
2023-10-31T07:56:48.939Z,0.50
2023-10-31T07:59:16.146Z,0.60
2023-10-31T08:01:43.349Z,0.50
2023-10-31T08:04:11.241Z,0.50
2023-10-31T08:06:38.571Z,0.50
2023-10-31T08:09:08.288Z,0.40
2023-10-31T08:11:36.706Z,0.60
2023-10-31T08:14:04.068Z,0.70
2023-10-31T08:16:31.365Z,0.80
2023-10-31T08:18:58.511Z,0.57
2023-10-31T08:21:25.637Z,0.50
2023-10-31T08:23:52.749Z,0.40
2023-10-31T08:26:20.352Z,0.40
2023-10-31T08:28:47.556Z,0.47
2023-10-31T08:31:14.839Z,0.50
2023-10-31T08:33:42.011Z,0.70
2023-10-31T08:36:10.052Z,0.60
2023-10-31T08:38:37.266Z,0.50
2023-10-31T08:41:04.958Z,0.60
2023-10-31T08:43:32.175Z,0.50
2023-10-31T08:45:59.363Z,0.40
2023-10-31T08:48:27.852Z,0.40
2023-10-31T08:50:55.010Z,0.47
2023-10-31T08:53:22.268Z,0.40
2023-10-31T08:55:49.557Z,0.50
2023-10-31T08:58:19.318Z,0.50
2023-10-31T09:00:46.519Z,0.40
2023-10-31T09:03:13.816Z,0.60
2023-10-31T09:05:41.873Z,0.60
2023-10-31T09:08:09.153Z,0.50
2023-10-31T09:10:40.929Z,0.50
2023-10-31T09:13:08.220Z,0.50
2023-10-31T09:15:35.483Z,0.60
2023-10-31T09:18:03.317Z,0.60
2023-10-31T09:20:31.401Z,0.50
2023-10-31T09:22:58.703Z,0.50
2023-10-31T09:25:25.969Z,0.50
2023-10-31T09:27:53.201Z,0.50
2023-10-31T09:30:20.699Z,0.50
2023-10-31T09:32:48.053Z,0.50
2023-10-31T09:35:16.010Z,0.50
2023-10-31T09:37:43.920Z,0.50
2023-10-31T09:40:11.821Z,0.50
2023-10-31T09:42:39.567Z,0.50
2023-10-31T09:45:07.755Z,0.50
2023-10-31T09:47:34.992Z,0.50
2023-10-31T09:50:02.434Z,0.50
2023-10-31T09:52:30.727Z,0.60
2023-10-31T09:54:58.716Z,0.50
2023-10-31T09:57:27.458Z,0.40
2023-10-31T09:59:56.549Z,0.50
2023-10-31T10:02:24.446Z,0.43
2023-10-31T10:04:51.878Z,0.40
2023-10-31T10:07:20.606Z,0.50
2023-10-31T10:09:48.064Z,0.50
2023-10-31T10:12:17.668Z,0.50
2023-10-31T10:14:48.325Z,0.40
2023-10-31T10:17:24.466Z,0.43
2023-10-31T10:20:12.601Z,0.70
2023-10-31T10:22:41.713Z,0.40
2023-10-31T10:25:15.300Z,0.50
2023-10-31T10:27:48.910Z,0.50
2023-10-31T10:30:17.639Z,0.50
2023-10-31T10:32:45.694Z,0.40
2023-10-31T10:35:12.957Z,0.50
2023-10-31T10:37:41.378Z,0.57
2023-10-31T10:40:12.002Z,0.53
2023-10-31T10:42:49.884Z,0.40
2023-10-31T10:45:19.127Z,0.50
2023-10-31T10:47:49.453Z,0.50
2023-10-31T10:50:21.064Z,0.40
2023-10-31T10:53:10.592Z,0.50
2023-10-31T10:55:46.669Z,0.50
2023-10-31T10:58:54.206Z,0.77
2023-10-31T11:01:21.868Z,0.40
2023-10-31T11:03:50.199Z,0.60
2023-10-31T11:06:17.668Z,0.50
2023-10-31T11:08:46.741Z,0.50
2023-10-31T11:11:17.150Z,0.50
2023-10-31T11:13:47.919Z,0.50
2023-10-31T11:16:23.871Z,0.50
2023-10-31T11:18:51.604Z,0.40
2023-10-31T11:21:19.039Z,0.50
2023-10-31T11:23:46.367Z,0.50
2023-10-31T11:26:13.899Z,0.60
2023-10-31T11:28:41.211Z,0.60
2023-10-31T11:31:10.128Z,0.60
2023-10-31T11:33:41.861Z,0.50
2023-10-31T11:36:09.758Z,1.00
2023-10-31T11:38:39.314Z,0.50
2023-10-31T11:41:07.416Z,1.10
2023-10-31T11:43:53.879Z,0.70
2023-10-31T11:46:26.434Z,0.50
2023-10-31T11:48:57.447Z,0.57
2023-10-31T11:51:25.554Z,0.83
2023-10-31T11:53:53.427Z,0.50
2023-10-31T11:56:21.986Z,0.60
2023-10-31T11:59:08.035Z,0.50
2023-10-31T12:01:35.651Z,0.47
2023-10-31T12:04:05.309Z,0.50
2023-10-31T12:06:33.403Z,0.50
2023-10-31T12:09:02.173Z,0.43
2023-10-31T12:11:29.622Z,0.50
2023-10-31T12:14:01.921Z,0.50
2023-10-31T12:16:35.056Z,0.70
2023-10-31T12:19:04.200Z,0.70
2023-10-31T12:21:49.042Z,0.50
2023-10-31T12:24:18.903Z,0.67
2023-10-31T12:26:47.532Z,0.50
2023-10-31T12:29:22.272Z,0.50
2023-10-31T12:31:53.120Z,0.57
2023-10-31T12:34:22.867Z,0.50
2023-10-31T12:36:53.683Z,0.50
2023-10-31T12:39:27.766Z,0.70
2023-10-31T12:41:56.061Z,0.53
2023-10-31T12:44:29.341Z,0.50
2023-10-31T12:46:57.777Z,0.60
2023-10-31T12:49:25.535Z,0.60
2023-10-31T12:52:06.516Z,0.80
2023-10-31T12:54:39.033Z,0.60
2023-10-31T12:57:08.395Z,0.60
2023-10-31T12:59:39.072Z,0.53
2023-10-31T13:02:07.722Z,0.43
2023-10-31T13:04:35.595Z,0.50
2023-10-31T13:07:10.045Z,0.53
2023-10-31T13:09:43.513Z,0.60
2023-10-31T13:12:14.027Z,0.60
2023-10-31T13:14:41.185Z,0.50
2023-10-31T13:17:08.607Z,0.53
2023-10-31T13:19:35.756Z,0.50
2023-10-31T13:22:02.811Z,0.60
2023-10-31T13:24:29.998Z,0.60
2023-10-31T13:26:57.366Z,0.50
2023-10-31T13:29:26.925Z,0.70
2023-10-31T13:31:54.446Z,0.43
2023-10-31T13:34:21.648Z,0.53
2023-10-31T13:36:51.301Z,0.50
2023-10-31T13:39:19.370Z,0.60
2023-10-31T13:41:47.963Z,0.60
2023-10-31T13:44:15.153Z,0.60
2023-10-31T13:46:42.307Z,0.47
2023-10-31T13:49:09.564Z,0.60
2023-10-31T13:51:37.116Z,0.60
2023-10-31T13:54:04.728Z,0.50
2023-10-31T13:56:33.281Z,0.60
2023-10-31T13:59:01.714Z,0.63
2023-10-31T14:01:30.004Z,0.60
2023-10-31T14:03:58.077Z,0.93
2023-10-31T14:06:31.127Z,0.70
2023-10-31T14:09:00.748Z,0.70
2023-10-31T14:11:28.184Z,0.60
2023-10-31T14:13:55.420Z,0.60
2023-10-31T14:16:22.673Z,0.50
2023-10-31T14:18:50.108Z,0.70
2023-10-31T14:21:17.219Z,0.53
2023-10-31T14:23:46.724Z,0.70
2023-10-31T14:26:14.204Z,0.57
2023-10-31T14:28:42.843Z,1.00
2023-10-31T14:31:11.778Z,0.80
2023-10-31T14:33:38.997Z,0.60
2023-10-31T14:36:06.882Z,0.70
2023-10-31T14:38:34.302Z,0.63
2023-10-31T14:41:01.558Z,0.67
2023-10-31T14:43:28.985Z,0.60
2023-10-31T14:45:56.889Z,0.60
2023-10-31T14:48:24.617Z,0.70
2023-10-31T14:50:51.841Z,0.80
2023-10-31T14:53:22.813Z,0.90
2023-10-31T14:55:50.173Z,0.90
2023-10-31T14:58:17.644Z,0.80
2023-10-31T15:00:45.342Z,0.80
2023-10-31T15:03:12.904Z,0.80
2023-10-31T15:05:40.453Z,0.97
2023-10-31T15:08:07.712Z,0.67
2023-10-31T15:10:36.381Z,1.13
2023-10-31T15:13:05.856Z,0.83
2023-10-31T15:15:33.417Z,0.83
2023-10-31T15:18:01.790Z,0.90
2023-10-31T15:20:29.268Z,0.80
2023-10-31T15:22:56.790Z,0.60
2023-10-31T15:25:24.055Z,1.20
2023-10-31T15:27:51.114Z,0.80
2023-10-31T15:30:18.738Z,0.60
2023-10-31T15:32:46.986Z,1.07
2023-10-31T15:35:14.660Z,1.00
2023-10-31T15:37:43.946Z,0.70
2023-10-31T15:40:12.308Z,0.70
2023-10-31T15:42:39.678Z,0.90
2023-10-31T15:45:10.614Z,0.80
2023-10-31T15:47:38.046Z,1.47
2023-10-31T15:50:06.308Z,0.70
2023-10-31T15:52:33.679Z,0.80
2023-10-31T15:55:00.885Z,1.00
2023-10-31T15:57:28.377Z,0.90
2023-10-31T15:59:55.759Z,0.90
2023-10-31T16:02:23.268Z,0.80
2023-10-31T16:04:50.524Z,0.90
2023-10-31T16:07:18.003Z,0.83
2023-10-31T16:09:45.366Z,1.10
2023-10-31T16:12:12.702Z,0.70
2023-10-31T16:14:40.053Z,0.83
2023-10-31T16:17:10.559Z,1.07
2023-10-31T16:19:37.795Z,1.10
2023-10-31T16:22:05.379Z,1.20
2023-10-31T16:24:32.907Z,1.00
2023-10-31T16:27:00.217Z,1.10
2023-10-31T16:29:27.367Z,1.43
2023-10-31T16:31:55.104Z,1.80
2023-10-31T16:34:25.148Z,2.10
2023-10-31T16:36:52.766Z,2.20
2023-10-31T16:39:20.191Z,2.00
2023-10-31T16:41:47.630Z,1.60
2023-10-31T16:44:14.823Z,1.70
2023-10-31T16:46:49.743Z,0.97
2023-10-31T16:49:18.829Z,1.10
2023-10-31T16:51:46.185Z,1.40
2023-10-31T16:54:16.568Z,1.00
2023-10-31T16:56:43.977Z,0.90
2023-10-31T16:59:11.317Z,0.90
2023-10-31T17:01:38.911Z,1.10
2023-10-31T17:04:06.968Z,1.03
2023-10-31T17:06:36.394Z,0.77
2023-10-31T17:09:03.797Z,0.93
2023-10-31T17:11:31.111Z,1.10
2023-10-31T17:13:59.318Z,1.20
2023-10-31T17:16:29.435Z,1.43
2023-10-31T17:18:56.863Z,0.97
2023-10-31T17:21:26.138Z,0.90
2023-10-31T17:23:53.229Z,0.80
2023-10-31T17:26:23.366Z,1.00
2023-10-31T17:28:52.080Z,1.20
2023-10-31T17:31:21.665Z,1.00
2023-10-31T17:33:50.858Z,1.13
2023-10-31T17:36:24.433Z,1.47
2023-10-31T17:38:51.815Z,1.53
2023-10-31T17:41:22.482Z,1.40
2023-10-31T17:43:50.352Z,0.90
2023-10-31T17:46:17.679Z,1.20
2023-10-31T17:48:46.696Z,1.43
2023-10-31T17:51:16.708Z,1.67
2023-10-31T17:53:45.046Z,1.40
2023-10-31T17:56:12.977Z,1.57
2023-10-31T17:58:41.070Z,1.27
2023-10-31T18:01:08.123Z,1.43
2023-10-31T18:03:35.904Z,1.77
2023-10-31T18:06:03.390Z,1.20
2023-10-31T18:08:30.820Z,1.53
2023-10-31T18:10:59.430Z,1.30
2023-10-31T18:13:26.690Z,1.40
2023-10-31T18:15:54.066Z,1.20
2023-10-31T18:18:21.491Z,1.00
2023-10-31T18:20:51.598Z,0.90
2023-10-31T18:23:18.924Z,1.07
2023-10-31T18:25:46.269Z,1.00
2023-10-31T18:28:13.520Z,1.20
2023-10-31T18:30:41.801Z,1.23
2023-10-31T18:33:09.249Z,1.13
2023-10-31T18:35:36.602Z,1.10
2023-10-31T18:38:04.340Z,1.40
2023-10-31T18:40:33.517Z,1.07
2023-10-31T18:43:00.626Z,0.90
2023-10-31T18:45:27.935Z,1.00
2023-10-31T18:47:55.320Z,1.20
2023-10-31T18:50:22.791Z,0.87
2023-10-31T18:52:50.049Z,1.10
2023-10-31T18:55:17.355Z,1.00
2023-10-31T18:57:45.153Z,1.00
2023-10-31T19:00:15.282Z,1.00
2023-10-31T19:02:42.631Z,1.00
2023-10-31T19:05:10.329Z,1.00
2023-10-31T19:07:40.396Z,1.10
2023-10-31T19:10:10.881Z,3.37
2023-10-31T19:12:38.622Z,0.90
2023-10-31T19:15:06.692Z,0.87
2023-10-31T19:17:33.909Z,1.00
2023-10-31T19:20:01.444Z,1.07
2023-10-31T19:22:29.056Z,1.10
2023-10-31T19:24:56.518Z,1.10
2023-10-31T19:27:24.321Z,1.00
2023-10-31T19:29:51.623Z,1.30
2023-10-31T19:32:18.830Z,1.30
2023-10-31T19:34:46.004Z,1.40
2023-10-31T19:37:13.376Z,1.40
2023-10-31T19:39:40.923Z,1.63
2023-10-31T19:42:08.862Z,1.07
2023-10-31T19:44:42.343Z,1.00
2023-10-31T19:47:11.347Z,1.43
2023-10-31T19:49:48.271Z,0.93
2023-10-31T19:52:15.488Z,0.90
2023-10-31T19:54:43.090Z,0.80
2023-10-31T19:57:10.520Z,0.83
2023-10-31T19:59:40.519Z,1.30
2023-10-31T20:02:07.988Z,0.70
2023-10-31T20:04:37.022Z,1.27
2023-10-31T20:07:04.868Z,0.90
2023-10-31T20:09:32.032Z,1.10
2023-10-31T20:11:59.240Z,0.77
2023-10-31T20:14:26.435Z,0.90
2023-10-31T20:16:54.112Z,1.07
2023-10-31T20:19:21.728Z,1.00
2023-10-31T20:21:49.001Z,1.20
2023-10-31T20:24:16.560Z,0.90
2023-10-31T20:26:43.899Z,1.00
2023-10-31T20:29:16.814Z,0.80
2023-10-31T20:31:44.181Z,0.60
2023-10-31T20:34:11.313Z,0.80
2023-10-31T20:36:43.017Z,1.10
2023-10-31T20:39:12.208Z,0.80
2023-10-31T20:41:39.481Z,1.07
2023-10-31T20:44:07.015Z,0.90
2023-10-31T20:46:34.254Z,0.90
2023-10-31T20:49:07.348Z,1.00
2023-10-31T20:51:34.731Z,1.10
2023-10-31T20:54:01.992Z,0.70
2023-10-31T20:56:29.880Z,0.70
2023-10-31T20:58:57.906Z,1.00
2023-10-31T21:01:27.768Z,0.80
2023-10-31T21:03:55.014Z,0.70
2023-10-31T21:06:23.374Z,0.70
2023-10-31T21:08:50.580Z,0.70
2023-10-31T21:11:19.887Z,0.80
2023-10-31T21:13:47.378Z,0.80
2023-10-31T21:16:14.684Z,0.80
2023-10-31T21:18:41.850Z,0.80
2023-10-31T21:21:08.950Z,0.90
2023-10-31T21:23:36.253Z,0.90
2023-10-31T21:26:03.696Z,0.77
2023-10-31T21:28:32.595Z,1.30
2023-10-31T21:30:59.828Z,0.90
2023-10-31T21:33:27.959Z,0.90
2023-10-31T21:35:55.345Z,0.90
2023-10-31T21:38:22.863Z,0.70
2023-10-31T21:40:50.050Z,0.90
2023-10-31T21:43:17.559Z,0.83
2023-10-31T21:45:44.755Z,0.80
2023-10-31T21:48:11.943Z,0.80
2023-10-31T21:50:39.170Z,0.83
2023-10-31T21:53:06.529Z,0.70
2023-10-31T21:55:33.832Z,1.97
2023-10-31T21:58:01.988Z,0.80
2023-10-31T22:00:29.369Z,0.80
2023-10-31T22:02:56.747Z,0.90
2023-10-31T22:05:24.506Z,1.03
2023-10-31T22:07:51.905Z,1.00
2023-10-31T22:10:19.214Z,0.93
2023-10-31T22:12:46.523Z,0.93
2023-10-31T22:15:13.872Z,1.00
2023-10-31T22:17:41.099Z,0.90
2023-10-31T22:20:09.191Z,0.97
2023-10-31T22:22:36.634Z,0.80
2023-10-31T22:25:04.314Z,1.10
2023-10-31T22:27:31.640Z,1.00
2023-10-31T22:29:59.013Z,0.80
2023-10-31T22:32:26.410Z,0.87
2023-10-31T22:34:53.835Z,1.00
2023-10-31T22:37:21.205Z,0.90
2023-10-31T22:39:48.884Z,0.87
2023-10-31T22:42:16.074Z,1.27
2023-10-31T22:44:44.353Z,1.03
2023-10-31T22:47:11.785Z,0.90
2023-10-31T22:49:39.031Z,0.90
2023-10-31T22:52:06.414Z,0.83
2023-10-31T22:54:33.557Z,1.00
2023-10-31T22:57:00.798Z,0.83
2023-10-31T22:59:34.082Z,0.97
2023-10-31T23:02:01.293Z,0.90
2023-10-31T23:04:29.346Z,1.10
2023-10-31T23:06:56.573Z,1.00
2023-10-31T23:09:23.949Z,1.10
2023-10-31T23:11:51.143Z,0.97
2023-10-31T23:14:18.592Z,1.10
2023-10-31T23:16:45.743Z,0.93
2023-10-31T23:19:12.910Z,2.23
2023-10-31T23:21:40.431Z,0.80
2023-10-31T23:24:09.161Z,0.90
2023-10-31T23:26:36.324Z,0.90
2023-10-31T23:29:03.684Z,1.07
2023-10-31T23:31:31.318Z,0.90
2023-10-31T23:33:58.513Z,1.10
2023-10-31T23:36:28.195Z,1.90
2023-10-31T23:38:55.430Z,1.13
2023-10-31T23:41:22.607Z,1.37
2023-10-31T23:43:49.901Z,1.20
2023-10-31T23:46:17.147Z,0.90
2023-10-31T23:48:44.380Z,1.40
2023-10-31T23:51:11.497Z,1.10
2023-10-31T23:53:38.718Z,0.90
2023-10-31T23:56:06.704Z,1.27
2023-10-31T23:58:35.457Z,1.10
